Terminal Aerodrome Forecast
Issued by NWS Bismarck, ND

Home | Current Version | Previous Version | Text Only | Print | Product List | Glossary Off
Versions: 1 2 3 4 5 6 7 8 9 10 11 12 13 14 15

025
FTUS43 KBIS 051721
TAFISN
TAF
KISN 051721Z 0518/0618 22008KT P6SM SCT150
     FM060900 24010KT P6SM SCT250 WS020/28045KT
     FM061600 25019G29KT P6SM BKN150=

USA.gov is the U.S. government's official web portal to all federal, state and local government web resources and services.